Time;durP1;ratioP1;P1;durP2;ratioP2;P2;SDS_P1;SDS_P2;PMS_P1;PMS_P2;Temp;Humidity;BMP_temperature;BMP_pressure;BME280_temperature;BME280_humidity;BME280_pressure;Samples;Min_cycle;Max_cycle;Signal;HPM_P1;HPM_P2
2023/02/13 00:00:01;;;;;;;19.93;12.00;;;0.20;99.90;;;;;;4994574;28;20284;-74
2023/02/13 00:02:26;;;;;;;19.37;11.50;;;0.10;99.90;;;;;;5004294;28;20215;-73
2023/02/13 00:04:52;;;;;;;20.10;11.30;;;0.20;99.90;;;;;;5011521;28;20221;-73
2023/02/13 00:07:17;;;;;;;22.47;11.67;;;0.20;99.90;;;;;;5000695;28;20197;-73
2023/02/13 00:09:43;;;;;;;19.90;11.73;;;0.10;99.90;;;;;;4992288;28;20563;-74
2023/02/13 00:12:09;;;;;;;19.57;12.10;;;0.10;99.90;;;;;;4992302;28;20210;-73
2023/02/13 00:14:36;;;;;;;19.07;11.70;;;0.10;99.90;;;;;;4992118;28;20223;-74
2023/02/13 00:17:02;;;;;;;18.13;10.27;;;0.00;99.90;;;;;;4991820;28;20433;-73
2023/02/13 00:19:27;;;;;;;20.90;12.10;;;0.00;99.90;;;;;;4992184;28;20483;-73
2023/02/13 00:21:53;;;;;;;20.30;11.07;;;0.00;99.90;;;;;;4992283;28;20877;-73
2023/02/13 00:24:18;;;;;;;21.23;10.93;;;0.00;99.90;;;;;;4999177;28;20762;-74
2023/02/13 00:26:44;;;;;;;16.10;10.90;;;0.00;99.90;;;;;;4991856;28;20553;-73
2023/02/13 00:29:10;;;;;;;21.80;11.33;;;0.00;99.90;;;;;;4993284;28;20202;-75
2023/02/13 00:31:35;;;;;;;17.67;9.93;;;-0.10;99.90;;;;;;4995865;28;20221;-73
2023/02/13 00:34:00;;;;;;;21.37;10.50;;;-0.10;99.90;;;;;;4995077;28;20221;-73
2023/02/13 00:36:26;;;;;;;15.10;9.97;;;-0.10;99.90;;;;;;4994767;28;20274;-73
2023/02/13 00:38:53;;;;;;;18.57;10.33;;;-0.20;99.90;;;;;;5002143;28;20189;-73
2023/02/13 00:41:19;;;;;;;20.87;9.80;;;-0.20;99.90;;;;;;4996020;28;20212;-75
2023/02/13 00:43:46;;;;;;;20.03;11.10;;;-0.20;99.90;;;;;;5002044;28;20575;-73
2023/02/13 00:46:12;;;;;;;19.43;9.97;;;-0.20;99.90;;;;;;4999064;28;20448;-73
2023/02/13 00:48:37;;;;;;;15.63;10.23;;;-0.20;99.90;;;;;;5002268;28;20426;-73
2023/02/13 00:51:04;;;;;;;18.90;9.67;;;-0.20;99.90;;;;;;4995198;28;20215;-74
2023/02/13 00:53:30;;;;;;;20.90;11.00;;;-0.20;99.90;;;;;;4995277;28;20691;-74
2023/02/13 00:55:56;;;;;;;18.07;10.20;;;-0.20;99.90;;;;;;5008470;28;20530;-72
2023/02/13 00:58:22;;;;;;;16.57;10.00;;;-0.20;99.90;;;;;;4995699;28;20437;-75
2023/02/13 01:00:48;;;;;;;17.33;10.30;;;-0.30;99.90;;;;;;5003389;28;20687;-74
2023/02/13 01:03:15;;;;;;;15.27;11.10;;;-0.30;99.90;;;;;;5002998;28;20471;-75
2023/02/13 01:05:42;;;;;;;19.20;10.83;;;-0.30;99.90;;;;;;4995082;28;20446;-74
2023/02/13 01:08:08;;;;;;;19.70;10.93;;;-0.30;99.90;;;;;;4994860;28;20888;-75
2023/02/13 01:10:33;;;;;;;20.83;11.20;;;-0.40;99.90;;;;;;4977680;28;20471;-74
2023/02/13 01:12:59;;;;;;;19.37;10.40;;;-0.40;99.90;;;;;;5003126;28;20690;-74
2023/02/13 01:15:24;;;;;;;17.33;9.97;;;-0.40;99.90;;;;;;5018685;28;20230;-74
2023/02/13 01:17:53;;;;;;;20.10;11.30;;;-0.40;99.90;;;;;;5009330;28;20241;-73
2023/02/13 01:20:19;;;;;;;19.30;11.77;;;-0.40;99.90;;;;;;4988654;28;20203;-74
2023/02/13 01:22:44;;;;;;;18.33;10.93;;;-0.50;99.90;;;;;;5000496;28;20450;-74
2023/02/13 01:25:10;;;;;;;21.47;11.03;;;-0.50;99.90;;;;;;5010314;28;20200;-75
2023/02/13 01:27:37;;;;;;;22.97;11.90;;;-0.50;99.90;;;;;;4992596;28;20661;-74
2023/02/13 01:30:09;;;;;;;17.80;10.73;;;-0.60;99.90;;;;;;4992747;28;20191;-74
2023/02/13 01:32:34;;;;;;;19.50;11.23;;;-0.60;99.90;;;;;;4976732;28;20981;-75
2023/02/13 01:35:00;;;;;;;23.53;12.03;;;-0.50;99.90;;;;;;4994376;28;20480;-74
2023/02/13 01:37:25;;;;;;;18.73;12.17;;;-0.50;99.90;;;;;;5002321;28;20196;-74
2023/02/13 01:39:53;;;;;;;17.50;10.20;;;-0.50;99.90;;;;;;4993156;28;20221;-74
2023/02/13 01:42:26;;;;;;;20.07;11.23;;;-0.60;99.90;;;;;;4993972;28;20213;-74
2023/02/13 01:45:00;;;;;;;23.00;12.27;;;-0.60;99.90;;;;;;5001562;28;20488;-73
2023/02/13 01:47:41;;;;;;;21.93;12.80;;;-0.60;99.90;;;;;;5003006;28;20487;-74
2023/02/13 01:50:17;;;;;;;21.90;10.30;;;-0.60;99.90;;;;;;5002680;28;20433;-75
2023/02/13 01:52:48;;;;;;;29.30;13.00;;;-0.60;99.90;;;;;;4977623;28;20522;-74
2023/02/13 01:55:15;;;;;;;22.70;11.50;;;-0.60;99.90;;;;;;4994456;28;20480;-74
2023/02/13 01:57:43;;;;;;;28.80;12.20;;;-0.70;99.90;;;;;;4994524;28;20433;-74
2023/02/13 03:31:11;;;;;;;35.10;14.67;;;-1.10;99.90;;;;;;5935141;23;21735;-71
2023/02/13 03:33:49;;;;;;;26.07;13.00;;;-1.10;99.90;;;;;;4988805;28;20477;-74
2023/02/13 03:39:22;;;;;;;30.90;14.10;;;-1.10;99.90;;;;;;4991943;28;20468;-74
2023/02/13 03:41:56;;;;;;;31.03;13.13;;;-1.10;99.90;;;;;;4980065;28;20464;-71
2023/02/13 03:44:43;;;;;;;27.80;13.83;;;-1.10;99.90;;;;;;4972509;28;20480;-73
2023/02/13 03:47:10;;;;;;;22.33;12.37;;;-1.10;99.90;;;;;;4972380;28;20480;-73
2023/02/13 03:50:06;;;;;;;25.57;13.37;;;-1.20;99.90;;;;;;4972391;28;20442;-75
2023/02/13 03:52:52;;;;;;;28.60;11.50;;;-1.20;99.90;;;;;;4972453;28;20900;-73
2023/02/13 04:01:01;;;;;;;27.33;13.43;;;-1.20;99.90;;;;;;4965662;28;20441;-75
2023/02/13 04:03:51;;;;;;;25.57;12.93;;;-1.20;99.90;;;;;;4971046;28;20426;-75
2023/02/13 04:06:28;;;;;;;28.57;13.33;;;-1.20;99.90;;;;;;4972081;28;20494;-72
2023/02/13 04:08:54;;;;;;;28.33;12.80;;;-1.20;99.90;;;;;;4971337;28;20485;-73
2023/02/13 04:11:35;;;;;;;31.37;12.30;;;-1.30;99.90;;;;;;4971999;28;20863;-73
2023/02/13 04:14:09;;;;;;;29.37;14.10;;;-1.30;99.90;;;;;;4971868;28;20212;-73
2023/02/13 04:16:42;;;;;;;29.47;12.23;;;-1.30;99.90;;;;;;4972307;28;20435;-73
2023/02/13 04:19:10;;;;;;;29.00;12.40;;;-1.30;99.90;;;;;;4971943;28;20486;-75
2023/02/13 04:21:39;;;;;;;26.97;13.43;;;-1.30;99.90;;;;;;4972121;28;20858;-73
2023/02/13 04:24:05;;;;;;;26.50;12.10;;;-1.30;99.90;;;;;;4971833;28;20446;-73
2023/02/13 04:26:41;;;;;;;24.30;11.23;;;-1.30;99.90;;;;;;4971691;28;20429;-73
2023/02/13 04:29:07;;;;;;;29.70;12.13;;;-1.30;99.90;;;;;;4971981;28;20462;-73
2023/02/13 04:31:33;;;;;;;23.43;12.27;;;-1.30;99.90;;;;;;4971924;28;20473;-73
2023/02/13 04:33:58;;;;;;;27.00;12.27;;;-1.30;99.90;;;;;;4970937;28;20225;-73
2023/02/13 04:36:24;;;;;;;27.13;13.63;;;-1.40;99.90;;;;;;4971532;28;20811;-73
2023/02/13 04:38:50;;;;;;;28.17;13.80;;;-1.40;99.90;;;;;;4972123;28;20277;-73
2023/02/13 04:41:16;;;;;;;27.83;12.83;;;-1.40;99.90;;;;;;4971695;28;20574;-74
2023/02/13 04:43:42;;;;;;;25.30;12.20;;;-1.40;99.90;;;;;;4971369;28;20446;-73
2023/02/13 04:46:07;;;;;;;28.53;14.83;;;-1.40;99.90;;;;;;4971749;28;20437;-73
2023/02/13 04:48:32;;;;;;;26.00;13.83;;;-1.40;99.90;;;;;;4971556;28;20629;-74
2023/02/13 04:50:58;;;;;;;24.23;12.77;;;-1.40;99.90;;;;;;4971988;28;20212;-74
2023/02/13 04:53:23;;;;;;;26.80;13.60;;;-1.40;99.90;;;;;;4971523;28;20204;-75
2023/02/13 04:55:49;;;;;;;24.93;12.37;;;-1.50;99.90;;;;;;4971819;28;20219;-73
2023/02/13 04:58:14;;;;;;;29.70;14.27;;;-1.50;99.90;;;;;;4971992;28;20213;-74
2023/02/13 05:00:40;;;;;;;27.80;13.03;;;-1.50;99.90;;;;;;4971717;28;20589;-74
2023/02/13 05:03:07;;;;;;;37.33;13.67;;;-1.50;99.90;;;;;;4972187;28;20189;-73
2023/02/13 05:05:33;;;;;;;29.60;14.87;;;-1.50;99.90;;;;;;4971356;28;20545;-73
2023/02/13 05:07:59;;;;;;;28.43;13.70;;;-1.50;99.90;;;;;;4971665;28;20487;-73
2023/02/13 05:10:25;;;;;;;32.20;13.40;;;-1.50;99.90;;;;;;4969774;28;20429;-73
2023/02/13 05:12:51;;;;;;;41.50;14.90;;;-1.50;99.90;;;;;;4971206;28;20232;-73
2023/02/13 05:15:17;;;;;;;33.40;13.70;;;-1.50;99.90;;;;;;4972886;28;21017;-74
2023/02/13 05:17:43;;;;;;;31.13;13.30;;;-1.60;99.90;;;;;;4974972;28;20242;-74
2023/02/13 05:20:10;;;;;;;27.70;12.83;;;-1.60;99.90;;;;;;4975129;28;20263;-75
2023/02/13 05:25:20;;;;;;;28.17;12.57;;;-1.60;99.90;;;;;;4974405;28;20458;-73
2023/02/13 05:27:45;;;;;;;30.50;12.53;;;-1.50;99.90;;;;;;4974688;28;20503;-74
2023/02/13 05:30:12;;;;;;;34.37;14.03;;;-1.60;99.90;;;;;;4975354;28;21002;-74
2023/02/13 05:32:38;;;;;;;26.43;12.67;;;-1.60;99.90;;;;;;4974428;28;20549;-74
2023/02/13 05:35:04;;;;;;;29.97;12.80;;;-1.60;99.90;;;;;;4974663;28;20842;-74
2023/02/13 05:37:30;;;;;;;34.63;14.60;;;-1.60;99.90;;;;;;4974569;28;20426;-76
2023/02/13 05:39:55;;;;;;;22.70;12.10;;;-1.60;99.90;;;;;;4974938;28;20940;-72
2023/02/13 05:42:21;;;;;;;29.83;14.27;;;-1.60;99.90;;;;;;4974488;28;20204;-74
2023/02/13 05:44:46;;;;;;;33.30;14.97;;;-1.70;99.90;;;;;;4974649;28;20247;-74
2023/02/13 05:47:12;;;;;;;28.00;13.97;;;-1.70;99.90;;;;;;4974551;28;20263;-74
2023/02/13 05:49:37;;;;;;;27.83;12.10;;;-1.70;99.90;;;;;;4974453;28;20198;-74
2023/02/13 05:52:03;;;;;;;28.40;12.30;;;-1.70;99.90;;;;;;4974821;28;20205;-74
2023/02/13 05:54:28;;;;;;;31.07;12.50;;;-1.70;99.90;;;;;;4974331;28;20229;-74
2023/02/13 05:56:54;;;;;;;25.83;12.87;;;-1.70;99.90;;;;;;4974424;28;20189;-74
2023/02/13 05:59:20;;;;;;;29.57;12.83;;;-1.70;99.90;;;;;;4974267;28;20176;-75
2023/02/13 06:01:45;;;;;;;26.43;13.53;;;-1.70;99.90;;;;;;4974375;28;20235;-75
2023/02/13 06:04:11;;;;;;;29.23;14.30;;;-1.60;99.90;;;;;;4974605;28;20182;-74
2023/02/13 06:06:36;;;;;;;27.80;13.97;;;-1.70;99.90;;;;;;4974286;28;20197;-74
2023/02/13 06:09:02;;;;;;;30.00;14.20;;;-1.70;99.90;;;;;;4974164;28;20194;-75
2023/02/13 06:11:27;;;;;;;25.40;12.17;;;-1.70;99.90;;;;;;4973700;28;20313;-75
2023/02/13 06:13:53;;;;;;;32.00;15.97;;;-1.70;99.90;;;;;;4973995;28;20267;-74
2023/02/13 06:16:18;;;;;;;34.20;14.30;;;-1.80;99.90;;;;;;4973767;28;20654;-73
2023/02/13 06:18:44;;;;;;;27.90;13.17;;;-1.70;99.90;;;;;;4969173;28;20198;-72
2023/02/13 06:21:09;;;;;;;31.63;13.80;;;-1.70;99.90;;;;;;4972150;28;20220;-74
2023/02/13 06:23:35;;;;;;;29.83;12.93;;;-1.70;99.90;;;;;;4972444;28;20451;-74
2023/02/13 06:26:06;;;;;;;26.97;12.70;;;-1.70;99.90;;;;;;4975096;28;20673;-73
2023/02/13 06:28:33;;;;;;;30.87;14.50;;;-1.70;99.90;;;;;;4973091;28;20280;-72
2023/02/13 06:30:58;;;;;;;32.10;13.43;;;-1.50;99.90;;;;;;4973476;28;20817;-72
2023/02/13 06:33:24;;;;;;;24.00;13.77;;;-1.50;99.90;;;;;;4973132;28;20443;-72
2023/02/13 06:35:50;;;;;;;29.37;13.33;;;-1.60;99.90;;;;;;4973502;28;20262;-72
2023/02/13 06:38:17;;;;;;;26.10;14.23;;;-1.50;99.90;;;;;;4973566;28;20197;-73
2023/02/13 06:40:46;;;;;;;38.20;13.17;;;-1.50;99.90;;;;;;4973511;28;20208;-72
2023/02/13 06:43:12;;;;;;;29.70;14.00;;;-1.50;99.90;;;;;;4973619;28;20425;-72
2023/02/13 06:45:38;;;;;;;29.13;13.57;;;-1.50;99.90;;;;;;4973120;28;20786;-72
2023/02/13 06:48:03;;;;;;;27.87;14.20;;;-1.50;99.90;;;;;;4973270;28;20467;-71
2023/02/13 06:50:29;;;;;;;30.90;13.93;;;-1.50;99.90;;;;;;4973117;28;20201;-72
2023/02/13 06:52:54;;;;;;;31.50;13.43;;;-1.40;99.90;;;;;;4973625;28;20189;-72
2023/02/13 06:55:20;;;;;;;27.70;11.57;;;-1.40;99.90;;;;;;4973098;28;20359;-72
2023/02/13 06:57:46;;;;;;;24.73;14.20;;;-1.40;99.90;;;;;;4973270;28;20184;-71
2023/02/13 07:00:13;;;;;;;32.70;13.50;;;-1.40;99.90;;;;;;4973176;28;20659;-72
2023/02/13 07:02:40;;;;;;;31.23;13.60;;;-1.40;99.90;;;;;;4972828;28;20211;-73
2023/02/13 07:05:06;;;;;;;31.37;14.27;;;-1.30;99.90;;;;;;4973054;28;20448;-73
2023/02/13 07:07:33;;;;;;;34.93;15.10;;;-1.30;99.90;;;;;;4973022;28;21054;-73
2023/02/13 07:09:59;;;;;;;32.20;14.20;;;-1.30;99.90;;;;;;4973089;28;20514;-73
2023/02/13 07:12:24;;;;;;;33.83;14.37;;;-1.30;99.90;;;;;;4972630;28;20457;-73
2023/02/13 07:14:50;;;;;;;27.50;14.57;;;-1.20;99.90;;;;;;4972975;28;20536;-73
2023/02/13 07:17:15;;;;;;;30.73;14.63;;;-1.20;99.90;;;;;;4972711;28;20562;-71
2023/02/13 07:19:41;;;;;;;37.23;15.37;;;-1.10;99.90;;;;;;4972543;28;20311;-73
2023/02/13 07:22:06;;;;;;;34.30;17.10;;;-1.00;99.90;;;;;;4939505;28;20298;-73
2023/02/13 07:24:34;;;;;;;41.10;17.43;;;-0.90;99.90;;;;;;4972365;28;20657;-72
2023/02/13 07:27:00;;;;;;;45.90;17.00;;;-0.90;99.90;;;;;;4973131;28;20684;-73
2023/02/13 07:29:25;;;;;;;40.13;17.23;;;-0.80;99.90;;;;;;4972554;28;20432;-71
2023/02/13 07:31:51;;;;;;;31.73;16.17;;;-0.60;99.90;;;;;;4972359;28;20467;-72
2023/02/13 07:34:16;;;;;;;33.40;16.83;;;0.20;99.90;;;;;;4972241;28;20671;-73
2023/02/13 07:36:42;;;;;;;30.97;15.50;;;1.70;99.90;;;;;;4972179;28;20593;-72
2023/02/13 07:39:07;;;;;;;31.50;14.20;;;3.20;99.90;;;;;;4972199;28;20183;-72
2023/02/13 07:41:33;;;;;;;27.87;14.40;;;4.60;99.90;;;;;;4972067;28;20298;-73
2023/02/13 07:43:58;;;;;;;30.53;15.33;;;6.10;99.90;;;;;;4972410;28;20202;-72
2023/02/13 07:46:24;;;;;;;27.63;15.30;;;7.00;99.90;;;;;;4972189;28;20680;-74
2023/02/13 07:48:53;;;;;;;25.57;16.30;;;8.30;99.90;;;;;;4972320;28;20191;-74
2023/02/13 07:51:19;;;;;;;28.23;15.77;;;8.80;99.90;;;;;;4972697;28;20210;-72
2023/02/13 07:53:45;;;;;;;28.80;15.10;;;9.20;99.90;;;;;;4972209;28;20914;-73
2023/02/13 07:56:10;;;;;;;27.47;16.20;;;9.80;99.90;;;;;;4972156;28;20463;-74
2023/02/13 07:58:38;;;;;;;28.40;16.60;;;10.60;99.90;;;;;;4972077;28;20279;-73
2023/02/13 08:01:08;;;;;;;28.90;17.03;;;10.30;99.90;;;;;;4972407;28;20196;-72
2023/02/13 08:03:34;;;;;;;24.70;16.60;;;11.20;99.90;;;;;;4971787;28;21025;-75
2023/02/13 08:06:00;;;;;;;27.63;16.43;;;11.60;99.90;;;;;;4972053;28;20431;-73
2023/02/13 08:08:25;;;;;;;26.90;16.30;;;11.50;99.90;;;;;;4972538;28;20192;-73
2023/02/13 08:13:36;;;;;;;26.63;17.90;;;11.10;99.90;;;;;;4972674;28;20202;-74
2023/02/13 08:16:01;;;;;;;25.10;16.60;;;11.00;99.90;;;;;;4971942;28;20427;-73
2023/02/13 08:18:27;;;;;;;23.47;16.57;;;11.10;99.90;;;;;;4971889;28;20433;-71
2023/02/13 08:20:52;;;;;;;29.23;18.27;;;11.00;99.90;;;;;;4964147;28;20204;-73
2023/02/13 08:23:18;;;;;;;28.20;18.00;;;10.50;99.90;;;;;;4971599;28;20199;-74
2023/02/13 08:25:44;;;;;;;29.40;18.37;;;10.30;99.90;;;;;;4971761;28;20195;-72
2023/02/13 08:28:09;;;;;;;26.90;16.90;;;9.80;99.90;;;;;;4971960;28;20199;-73
2023/02/13 08:30:35;;;;;;;28.60;18.47;;;9.50;99.90;;;;;;4971328;28;20227;-73
2023/02/13 08:33:00;;;;;;;33.23;16.93;;;8.70;99.90;;;;;;4972097;28;20242;-73
2023/02/13 08:35:28;;;;;;;27.13;16.77;;;8.70;99.90;;;;;;4971630;28;20238;-73
2023/02/13 08:37:54;;;;;;;25.13;16.27;;;8.80;99.90;;;;;;4971964;28;20176;-73
2023/02/13 08:40:20;;;;;;;26.10;16.00;;;8.60;99.90;;;;;;4971810;28;20789;-71
2023/02/13 08:42:45;;;;;;;30.90;18.20;;;8.60;99.90;;;;;;4971541;28;20430;-74
2023/02/13 08:45:11;;;;;;;32.90;18.13;;;8.50;99.90;;;;;;4971960;28;20529;-74
2023/02/13 08:47:38;;;;;;;28.90;16.77;;;8.50;99.90;;;;;;4971585;28;20603;-73
2023/02/13 08:50:04;;;;;;;26.50;15.20;;;8.70;99.90;;;;;;4973520;28;20180;-73
2023/02/13 08:52:30;;;;;;;24.40;12.57;;;8.60;99.90;;;;;;4975238;28;20458;-71
2023/02/13 08:54:55;;;;;;;18.60;13.23;;;8.70;99.90;;;;;;4975423;28;20525;-74
2023/02/13 08:57:21;;;;;;;23.73;13.00;;;8.60;99.90;;;;;;4975368;28;20206;-73
2023/02/13 08:59:46;;;;;;;16.70;11.33;;;8.70;99.90;;;;;;4975290;28;20195;-73
2023/02/13 09:02:13;;;;;;;21.33;12.67;;;8.80;99.90;;;;;;4975314;28;20280;-72
2023/02/13 09:04:39;;;;;;;18.97;12.90;;;8.80;99.90;;;;;;4974880;28;20188;-72
2023/02/13 09:07:04;;;;;;;24.03;15.57;;;8.70;99.90;;;;;;4975443;28;20453;-72
2023/02/13 09:09:30;;;;;;;21.33;13.57;;;8.50;99.90;;;;;;4975035;28;20582;-72
2023/02/13 09:11:56;;;;;;;24.40;15.37;;;8.60;99.90;;;;;;4973784;28;20695;-73
2023/02/13 09:14:23;;;;;;;22.10;14.93;;;8.80;99.90;;;;;;4972988;28;20781;-73
2023/02/13 09:16:48;;;;;;;24.00;14.60;;;9.00;99.90;;;;;;4973841;28;20430;-75
2023/02/13 09:19:14;;;;;;;18.47;14.13;;;9.30;99.90;;;;;;4975242;28;20885;-73
2023/02/13 09:21:39;;;;;;;22.00;13.10;;;9.60;99.90;;;;;;4974780;28;20216;-72
2023/02/13 09:24:09;;;;;;;19.77;13.63;;;10.00;99.90;;;;;;4975111;28;20274;-73
2023/02/13 09:26:35;;;;;;;17.60;12.43;;;10.00;99.90;;;;;;4974735;28;20194;-71
2023/02/13 09:29:00;;;;;;;20.83;12.03;;;10.20;99.90;;;;;;4974917;28;20942;-73
2023/02/13 09:31:26;;;;;;;15.37;11.57;;;10.50;99.90;;;;;;4974783;28;20323;-72
2023/02/13 09:33:52;;;;;;;20.10;13.00;;;10.60;99.90;;;;;;4974634;28;20200;-72
2023/02/13 09:36:19;;;;;;;20.43;12.60;;;10.70;99.90;;;;;;4957349;28;20180;-73
2023/02/13 09:38:50;;;;;;;15.93;12.00;;;10.70;99.90;;;;;;4974893;28;20200;-74
2023/02/13 09:41:29;;;;;;;17.73;11.70;;;10.80;99.90;;;;;;4974818;28;20453;-73
2023/02/13 09:43:59;;;;;;;16.60;12.10;;;10.80;99.90;;;;;;4957422;28;20799;-73
2023/02/13 09:46:31;;;;;;;18.77;12.43;;;11.20;99.90;;;;;;4974801;28;20427;-73
2023/02/13 09:49:02;;;;;;;16.83;11.80;;;11.30;99.90;;;;;;4974929;28;20421;-73
2023/02/13 09:51:28;;;;;;;16.23;11.63;;;11.20;99.90;;;;;;4974620;28;20455;-74
2023/02/13 09:54:03;;;;;;;18.13;12.57;;;11.20;99.90;;;;;;4974819;28;20434;-74
2023/02/13 09:56:39;;;;;;;17.73;11.77;;;11.00;99.90;;;;;;4974459;28;20485;-73
2023/02/13 09:59:07;;;;;;;22.90;13.80;;;11.30;99.90;;;;;;4967572;28;20427;-74
2023/02/13 10:01:38;;;;;;;17.00;12.00;;;11.40;99.90;;;;;;4974164;28;20453;-73
2023/02/13 10:04:17;;;;;;;18.50;11.40;;;11.30;99.90;;;;;;4967254;28;20439;-73
2023/02/13 10:06:49;;;;;;;17.10;11.63;;;10.90;99.90;;;;;;4956735;28;20447;-72
2023/02/13 10:09:45;;;;;;;19.37;12.70;;;10.90;99.90;;;;;;4974608;28;20431;-74
2023/02/13 10:12:28;;;;;;;16.67;11.50;;;11.00;99.90;;;;;;4974258;28;20454;-74
2023/02/13 10:14:59;;;;;;;16.23;11.90;;;11.30;99.90;;;;;;4974055;28;20834;-74
2023/02/13 10:17:37;;;;;;;19.77;13.13;;;11.20;99.90;;;;;;4973955;28;20517;-73
2023/02/13 10:20:49;;;;;;;15.30;10.60;;;11.40;99.90;;;;;;4966855;28;20530;-74
2023/02/13 10:23:31;;;;;;;18.60;12.60;;;11.80;99.90;;;;;;4971082;28;20546;-74
2023/02/13 10:26:02;;;;;;;19.33;12.90;;;12.10;99.90;;;;;;4973951;28;20796;-74
2023/02/13 10:28:36;;;;;;;18.30;12.93;;;12.00;99.90;;;;;;4974301;28;20466;-73
2023/02/13 10:31:16;;;;;;;16.17;11.97;;;11.90;99.90;;;;;;4974417;28;20458;-74
2023/02/13 10:33:54;;;;;;;16.80;12.50;;;12.30;99.90;;;;;;4973790;28;20443;-74
2023/02/13 10:36:36;;;;;;;17.70;12.57;;;12.30;99.90;;;;;;4974473;28;20445;-73
2023/02/13 10:39:05;;;;;;;17.53;13.40;;;12.50;99.90;;;;;;4966892;28;20434;-73
2023/02/13 10:41:51;;;;;;;20.47;13.10;;;12.40;99.90;;;;;;4973968;28;20459;-73
2023/02/13 10:44:50;;;;;;;15.67;12.37;;;12.50;99.90;;;;;;4968048;28;20506;-74
2023/02/13 10:47:39;;;;;;;18.47;12.60;;;12.80;99.90;;;;;;4968170;28;20775;-74
2023/02/13 10:50:21;;;;;;;17.43;13.63;;;12.80;99.90;;;;;;4973965;28;20424;-73
2023/02/13 10:53:11;;;;;;;17.57;12.30;;;12.80;99.90;;;;;;4973893;28;20430;-74
2023/02/13 10:56:15;;;;;;;14.80;11.77;;;12.80;99.90;;;;;;4973509;28;20462;-71
2023/02/13 10:59:03;;;;;;;19.23;12.23;;;13.10;99.90;;;;;;4974195;28;20429;-73
2023/02/13 11:01:58;;;;;;;19.23;12.20;;;13.00;99.90;;;;;;4973637;28;20865;-72
2023/02/13 11:04:23;;;;;;;19.90;12.97;;;12.70;99.90;;;;;;4965569;28;20423;-73
2023/02/13 11:06:59;;;;;;;19.50;12.60;;;12.70;99.90;;;;;;4973665;28;20435;-73
2023/02/13 11:09:25;;;;;;;15.53;11.57;;;12.60;99.90;;;;;;4973343;28;20264;-74
2023/02/13 11:11:51;;;;;;;14.93;12.43;;;12.80;99.90;;;;;;4965349;28;20502;-73
2023/02/13 11:14:22;;;;;;;19.23;11.53;;;13.20;99.90;;;;;;4960192;28;20472;-72
2023/02/13 11:16:56;;;;;;;14.63;10.53;;;13.20;99.90;;;;;;4952926;28;20474;-71
2023/02/13 11:19:24;;;;;;;15.23;11.30;;;13.20;99.90;;;;;;4968101;28;20779;-74
2023/02/13 11:21:54;;;;;;;18.20;11.90;;;13.30;99.90;;;;;;4965398;28;20498;-72
2023/02/13 11:24:23;;;;;;;13.00;9.47;;;13.00;99.90;;;;;;4973266;28;20970;-72
2023/02/13 11:26:58;;;;;;;15.23;11.63;;;12.90;99.90;;;;;;4973425;28;20419;-73
2023/02/13 11:29:32;;;;;;;13.13;10.37;;;12.70;99.90;;;;;;4965788;28;20422;-73
2023/02/13 11:32:26;;;;;;;16.40;11.67;;;12.60;99.90;;;;;;4965359;28;20597;-73
2023/02/13 11:34:53;;;;;;;15.20;9.63;;;12.60;99.90;;;;;;4972755;28;20471;-73
2023/02/13 11:37:21;;;;;;;15.63;11.20;;;12.60;99.90;;;;;;4973315;28;20414;-73
2023/02/13 11:39:48;;;;;;;15.73;10.87;;;12.40;99.90;;;;;;4973271;28;20793;-72
2023/02/13 11:42:29;;;;;;;14.67;10.00;;;12.20;99.90;;;;;;4965131;28;20451;-73
2023/02/13 11:45:00;;;;;;;13.13;9.80;;;12.50;99.90;;;;;;4973510;28;20422;-71
2023/02/13 11:47:36;;;;;;;15.20;9.63;;;12.40;99.90;;;;;;4972957;28;20912;-73
2023/02/13 11:50:02;;;;;;;18.67;10.33;;;12.00;99.90;;;;;;4965093;28;20452;-73
2023/02/13 11:52:32;;;;;;;13.70;11.03;;;12.00;99.90;;;;;;4972919;28;20998;-73
2023/02/13 11:55:23;;;;;;;12.53;9.23;;;12.00;99.90;;;;;;4972878;28;21083;-73
2023/02/13 11:58:00;;;;;;;13.47;9.57;;;11.90;99.90;;;;;;4965164;28;20941;-73
2023/02/13 12:00:38;;;;;;;11.40;8.40;;;11.80;99.90;;;;;;4964987;28;20946;-73
2023/02/13 12:03:27;;;;;;;11.97;9.50;;;11.50;99.90;;;;;;4972908;28;20408;-75
2023/02/13 12:06:12;;;;;;;12.63;8.90;;;11.50;99.90;;;;;;4972779;28;20415;-72
2023/02/13 12:08:40;;;;;;;17.00;10.67;;;11.30;99.90;;;;;;4972849;28;20449;-75
2023/02/13 12:11:23;;;;;;;14.67;8.80;;;11.30;99.90;;;;;;4964848;28;20427;-73
2023/02/13 12:13:50;;;;;;;11.60;8.70;;;11.20;99.90;;;;;;4964893;28;20420;-73
2023/02/13 12:16:43;;;;;;;9.67;7.90;;;11.30;99.90;;;;;;4972421;28;20875;-73
2023/02/13 12:19:24;;;;;;;13.63;8.90;;;11.20;99.90;;;;;;4973025;28;20407;-73
2023/02/13 12:22:13;;;;;;;11.53;8.87;;;10.90;99.90;;;;;;4964888;28;20439;-74
2023/02/13 12:24:54;;;;;;;13.50;9.47;;;10.80;99.90;;;;;;4973107;28;20426;-76
2023/02/13 12:27:25;;;;;;;14.67;9.73;;;10.70;99.90;;;;;;4976315;28;20419;-74
2023/02/13 12:30:13;;;;;;;9.47;8.33;;;10.90;99.90;;;;;;4976377;28;20431;-74
2023/02/13 12:33:03;;;;;;;10.20;7.80;;;11.00;99.90;;;;;;4968646;28;20475;-72
2023/02/13 12:36:08;;;;;;;11.00;8.50;;;11.00;99.90;;;;;;4956803;28;20935;-74
2023/02/13 12:38:47;;;;;;;14.20;10.03;;;10.80;99.90;;;;;;4971649;28;20410;-73
2023/02/13 12:41:18;;;;;;;12.10;8.87;;;10.60;99.90;;;;;;4968857;28;20924;-73
2023/02/13 12:44:15;;;;;;;13.23;9.70;;;10.50;99.90;;;;;;4976745;28;20415;-74
2023/02/13 12:46:59;;;;;;;12.03;9.90;;;10.50;99.90;;;;;;4968315;28;20423;-73
2023/02/13 12:49:37;;;;;;;14.07;9.13;;;10.40;99.90;;;;;;4968690;28;20423;-74
2023/02/13 12:52:11;;;;;;;15.10;11.77;;;10.50;99.90;;;;;;4976602;28;20447;-74
2023/02/13 12:54:51;;;;;;;12.43;9.13;;;10.50;99.90;;;;;;4975783;28;20473;-73
2023/02/13 12:57:16;;;;;;;17.53;12.13;;;10.50;99.90;;;;;;4968056;28;20896;-73
2023/02/13 13:00:12;;;;;;;18.30;11.53;;;10.50;99.90;;;;;;4958685;28;20422;-73
2023/02/13 13:02:54;;;;;;;16.63;10.77;;;10.40;99.90;;;;;;4971807;28;20228;-73
2023/02/13 13:05:36;;;;;;;19.50;11.37;;;10.30;99.90;;;;;;4975575;28;20430;-73
2023/02/13 13:08:05;;;;;;;17.63;10.40;;;10.30;99.90;;;;;;4975822;28;20419;-73
2023/02/13 13:10:33;;;;;;;16.47;10.23;;;10.30;99.90;;;;;;4975276;28;20457;-73
2023/02/13 13:13:07;;;;;;;16.97;10.93;;;10.20;99.90;;;;;;4975646;28;20493;-73
2023/02/13 13:15:36;;;;;;;17.20;9.63;;;10.10;99.90;;;;;;4975299;28;20480;-73
2023/02/13 13:18:21;;;;;;;12.93;10.33;;;10.00;99.90;;;;;;4975579;28;20416;-74
2023/02/13 13:21:15;;;;;;;16.80;11.30;;;10.00;99.90;;;;;;4975499;28;20494;-73
2023/02/13 13:24:20;;;;;;;17.90;11.10;;;10.00;99.90;;;;;;4975327;28;20474;-74
2023/02/13 13:26:48;;;;;;;15.70;10.77;;;10.00;99.90;;;;;;4953124;28;20454;-73
2023/02/13 13:29:24;;;;;;;15.13;9.87;;;10.10;99.90;;;;;;4968041;28;20423;-73
2023/02/13 13:31:59;;;;;;;16.93;10.40;;;10.20;99.90;;;;;;4975218;28;20469;-72
2023/02/13 13:34:26;;;;;;;13.43;10.10;;;10.20;99.90;;;;;;4967337;28;20802;-73
2023/02/13 13:37:05;;;;;;;14.80;10.40;;;10.20;99.90;;;;;;4966818;28;20423;-73
2023/02/13 13:40:00;;;;;;;15.90;9.77;;;10.20;99.90;;;;;;4967094;28;20501;-72
2023/02/13 13:42:50;;;;;;;12.67;9.80;;;10.10;99.90;;;;;;4973309;28;20471;-74
2023/02/13 13:45:51;;;;;;;17.33;11.77;;;10.20;99.90;;;;;;4971554;28;20823;-73
2023/02/13 13:48:49;;;;;;;15.87;9.90;;;10.20;99.90;;;;;;4967130;28;20514;-74
2023/02/13 13:51:17;;;;;;;13.20;9.63;;;10.20;99.90;;;;;;4965199;28;20439;-74
2023/02/13 13:54:03;;;;;;;15.03;10.17;;;10.20;99.90;;;;;;4965416;28;20431;-73
2023/02/13 13:57:00;;;;;;;13.47;9.93;;;10.20;99.90;;;;;;4960530;28;20913;-73
2023/02/13 13:59:32;;;;;;;13.30;10.47;;;10.30;99.90;;;;;;4974358;28;20466;-73
2023/02/13 14:02:16;;;;;;;14.17;10.07;;;10.20;99.90;;;;;;4974420;28;20435;-73
2023/02/13 14:05:20;;;;;;;17.10;9.90;;;10.20;99.90;;;;;;4974573;28;20498;-75
2023/02/13 14:07:48;;;;;;;14.27;10.63;;;10.20;99.90;;;;;;4974689;28;20438;-73
2023/02/13 14:10:20;;;;;;;15.43;10.13;;;10.10;99.90;;;;;;4971139;28;20411;-73
2023/02/13 14:12:56;;;;;;;12.13;9.47;;;10.10;99.90;;;;;;4970563;28;20952;-74
2023/02/13 14:15:37;;;;;;;15.67;11.00;;;10.10;99.90;;;;;;4967352;28;20467;-73
2023/02/13 14:18:10;;;;;;;12.00;9.23;;;10.00;99.90;;;;;;4970072;28;20418;-73
2023/02/13 14:20:51;;;;;;;10.60;9.40;;;10.00;99.90;;;;;;4969932;28;20460;-75
2023/02/13 14:23:35;;;;;;;15.73;9.40;;;10.10;99.90;;;;;;4966729;28;20415;-73
2023/02/13 14:26:16;;;;;;;15.27;11.50;;;10.20;99.90;;;;;;4968399;28;20442;-74
2023/02/13 14:28:47;;;;;;;15.10;9.60;;;10.10;99.90;;;;;;4971212;28;20432;-72
2023/02/13 14:31:33;;;;;;;12.73;9.40;;;10.10;99.90;;;;;;4974086;28;20469;-74
2023/02/13 14:34:02;;;;;;;13.30;9.40;;;10.20;99.90;;;;;;4972834;28;20430;-74
2023/02/13 14:36:34;;;;;;;12.53;9.37;;;10.20;99.90;;;;;;4972031;28;20514;-74